sensor_id;sensor_type;location;lat;lon;timestamp;temperature;humidity
80958;DHT22;70419;42.700;23.316;2023-07-28T00:02:10;17.40;48.00
80958;DHT22;70419;42.700;23.316;2023-07-28T00:04:37;17.40;48.20
80958;DHT22;70419;42.700;23.316;2023-07-28T00:07:04;17.20;48.30
80958;DHT22;70419;42.700;23.316;2023-07-28T00:09:30;17.20;48.50
80958;DHT22;70419;42.700;23.316;2023-07-28T00:11:57;17.20;48.70
80958;DHT22;70419;42.700;23.316;2023-07-28T00:14:23;17.10;48.70
80958;DHT22;70419;42.700;23.316;2023-07-28T00:16:53;17.10;48.70
80958;DHT22;70419;42.700;23.316;2023-07-28T00:19:20;17.10;48.80
80958;DHT22;70419;42.700;23.316;2023-07-28T00:21:48;17.20;49.10
80958;DHT22;70419;42.700;23.316;2023-07-28T00:24:14;17.20;48.70
80958;DHT22;70419;42.700;23.316;2023-07-28T00:26:42;17.10;48.70
80958;DHT22;70419;42.700;23.316;2023-07-28T00:29:08;17.10;48.90
80958;DHT22;70419;42.700;23.316;2023-07-28T00:31:34;17.10;49.10
80958;DHT22;70419;42.700;23.316;2023-07-28T00:34:01;17.00;49.30
80958;DHT22;70419;42.700;23.316;2023-07-28T00:36:28;16.90;49.60
80958;DHT22;70419;42.700;23.316;2023-07-28T00:38:54;16.90;49.80
80958;DHT22;70419;42.700;23.316;2023-07-28T00:41:20;16.90;49.90
80958;DHT22;70419;42.700;23.316;2023-07-28T00:43:45;16.90;50.00
80958;DHT22;70419;42.700;23.316;2023-07-28T00:46:13;16.90;50.00
80958;DHT22;70419;42.700;23.316;2023-07-28T00:48:40;16.80;49.90
80958;DHT22;70419;42.700;23.316;2023-07-28T00:51:07;16.70;50.10
80958;DHT22;70419;42.700;23.316;2023-07-28T00:53:33;16.70;50.30
80958;DHT22;70419;42.700;23.316;2023-07-28T00:56:00;16.60;50.60
80958;DHT22;70419;42.700;23.316;2023-07-28T00:58:26;16.50;50.70
80958;DHT22;70419;42.700;23.316;2023-07-28T01:00:52;16.50;51.00
80958;DHT22;70419;42.700;23.316;2023-07-28T01:03:18;16.40;51.10
80958;DHT22;70419;42.700;23.316;2023-07-28T01:08:30;16.40;51.40
80958;DHT22;70419;42.700;23.316;2023-07-28T01:10:57;16.30;51.20
80958;DHT22;70419;42.700;23.316;2023-07-28T01:13:23;16.30;51.40
80958;DHT22;70419;42.700;23.316;2023-07-28T01:15:49;16.30;51.40
80958;DHT22;70419;42.700;23.316;2023-07-28T01:18:15;16.20;51.80
80958;DHT22;70419;42.700;23.316;2023-07-28T01:20:41;16.20;51.80
80958;DHT22;70419;42.700;23.316;2023-07-28T01:23:18;16.20;52.00
80958;DHT22;70419;42.700;23.316;2023-07-28T01:26:08;16.10;52.20
80958;DHT22;70419;42.700;23.316;2023-07-28T01:28:35;16.10;52.50
80958;DHT22;70419;42.700;23.316;2023-07-28T01:31:03;16.10;52.00
80958;DHT22;70419;42.700;23.316;2023-07-28T01:33:29;16.10;52.20
80958;DHT22;70419;42.700;23.316;2023-07-28T01:35:55;16.00;52.30
80958;DHT22;70419;42.700;23.316;2023-07-28T01:38:21;16.00;52.40
80958;DHT22;70419;42.700;23.316;2023-07-28T01:40:46;15.90;52.50
80958;DHT22;70419;42.700;23.316;2023-07-28T01:43:12;16.00;52.70
80958;DHT22;70419;42.700;23.316;2023-07-28T01:45:38;15.90;52.70
80958;DHT22;70419;42.700;23.316;2023-07-28T01:48:04;16.00;52.70
80958;DHT22;70419;42.700;23.316;2023-07-28T01:50:30;16.00;52.50
80958;DHT22;70419;42.700;23.316;2023-07-28T01:52:56;15.90;52.40
80958;DHT22;70419;42.700;23.316;2023-07-28T01:55:22;15.90;52.50
80958;DHT22;70419;42.700;23.316;2023-07-28T01:57:59;15.90;52.10
80958;DHT22;70419;42.700;23.316;2023-07-28T02:00:25;16.00;52.10
80958;DHT22;70419;42.700;23.316;2023-07-28T02:02:52;15.90;52.20
80958;DHT22;70419;42.700;23.316;2023-07-28T02:05:19;15.80;52.10
80958;DHT22;70419;42.700;23.316;2023-07-28T02:07:45;15.80;52.30
80958;DHT22;70419;42.700;23.316;2023-07-28T02:10:11;15.80;52.40
80958;DHT22;70419;42.700;23.316;2023-07-28T02:12:37;15.80;52.40
80958;DHT22;70419;42.700;23.316;2023-07-28T02:15:04;15.80;52.20
80958;DHT22;70419;42.700;23.316;2023-07-28T02:17:30;15.80;52.20
80958;DHT22;70419;42.700;23.316;2023-07-28T02:19:56;15.80;52.10
80958;DHT22;70419;42.700;23.316;2023-07-28T02:22:22;15.80;52.00
80958;DHT22;70419;42.700;23.316;2023-07-28T02:24:48;15.80;52.40
80958;DHT22;70419;42.700;23.316;2023-07-28T02:27:13;15.70;52.40
80958;DHT22;70419;42.700;23.316;2023-07-28T02:29:39;15.60;52.40
80958;DHT22;70419;42.700;23.316;2023-07-28T02:32:05;15.60;52.40
80958;DHT22;70419;42.700;23.316;2023-07-28T02:34:31;15.70;52.40
80958;DHT22;70419;42.700;23.316;2023-07-28T02:36:57;15.70;52.60
80958;DHT22;70419;42.700;23.316;2023-07-28T02:39:23;15.60;52.80
80958;DHT22;70419;42.700;23.316;2023-07-28T02:41:50;15.60;52.90
80958;DHT22;70419;42.700;23.316;2023-07-28T02:44:15;15.70;53.00
80958;DHT22;70419;42.700;23.316;2023-07-28T02:46:41;15.60;52.90
80958;DHT22;70419;42.700;23.316;2023-07-28T02:49:07;15.70;53.10
80958;DHT22;70419;42.700;23.316;2023-07-28T02:51:33;15.60;53.10
80958;DHT22;70419;42.700;23.316;2023-07-28T02:54:00;15.60;53.00
80958;DHT22;70419;42.700;23.316;2023-07-28T02:56:25;15.60;53.00
80958;DHT22;70419;42.700;23.316;2023-07-28T02:58:51;15.60;53.20
80958;DHT22;70419;42.700;23.316;2023-07-28T03:01:17;15.50;53.10
80958;DHT22;70419;42.700;23.316;2023-07-28T03:03:43;15.60;53.10
80958;DHT22;70419;42.700;23.316;2023-07-28T03:06:09;15.60;53.00
80958;DHT22;70419;42.700;23.316;2023-07-28T03:08:35;15.50;52.90
80958;DHT22;70419;42.700;23.316;2023-07-28T03:11:00;15.60;53.20
80958;DHT22;70419;42.700;23.316;2023-07-28T03:13:29;15.60;54.10
80958;DHT22;70419;42.700;23.316;2023-07-28T03:15:54;15.60;53.00
80958;DHT22;70419;42.700;23.316;2023-07-28T03:18:20;15.60;52.80
80958;DHT22;70419;42.700;23.316;2023-07-28T03:20:48;15.60;53.30
80958;DHT22;70419;42.700;23.316;2023-07-28T03:23:14;15.60;53.00
80958;DHT22;70419;42.700;23.316;2023-07-28T03:25:40;15.60;52.80
80958;DHT22;70419;42.700;23.316;2023-07-28T03:28:05;15.70;52.60
80958;DHT22;70419;42.700;23.316;2023-07-28T03:30:31;15.70;52.70
80958;DHT22;70419;42.700;23.316;2023-07-28T03:32:57;15.70;52.80
80958;DHT22;70419;42.700;23.316;2023-07-28T03:35:23;15.80;52.60
80958;DHT22;70419;42.700;23.316;2023-07-28T03:37:48;15.80;52.30
80958;DHT22;70419;42.700;23.316;2023-07-28T03:40:14;15.80;52.20
80958;DHT22;70419;42.700;23.316;2023-07-28T03:42:40;15.80;52.30
80958;DHT22;70419;42.700;23.316;2023-07-28T03:45:06;15.80;52.30
80958;DHT22;70419;42.700;23.316;2023-07-28T03:47:33;15.80;52.30
80958;DHT22;70419;42.700;23.316;2023-07-28T03:49:59;15.90;52.20
80958;DHT22;70419;42.700;23.316;2023-07-28T03:52:25;15.90;51.90
80958;DHT22;70419;42.700;23.316;2023-07-28T03:54:50;15.90;52.00
80958;DHT22;70419;42.700;23.316;2023-07-28T03:57:17;15.90;51.80
80958;DHT22;70419;42.700;23.316;2023-07-28T03:59:43;15.90;51.80
80958;DHT22;70419;42.700;23.316;2023-07-28T04:02:08;16.00;51.90
80958;DHT22;70419;42.700;23.316;2023-07-28T04:04:35;15.90;51.70
80958;DHT22;70419;42.700;23.316;2023-07-28T04:07:01;16.00;51.80
80958;DHT22;70419;42.700;23.316;2023-07-28T04:09:26;16.00;51.80
80958;DHT22;70419;42.700;23.316;2023-07-28T04:11:52;16.10;51.80
80958;DHT22;70419;42.700;23.316;2023-07-28T04:14:18;16.10;51.90
80958;DHT22;70419;42.700;23.316;2023-07-28T04:16:44;16.20;51.50
80958;DHT22;70419;42.700;23.316;2023-07-28T04:19:10;16.30;50.80
80958;DHT22;70419;42.700;23.316;2023-07-28T04:21:35;16.30;51.10
80958;DHT22;70419;42.700;23.316;2023-07-28T04:24:06;16.30;51.10
80958;DHT22;70419;42.700;23.316;2023-07-28T04:26:32;16.40;51.10
80958;DHT22;70419;42.700;23.316;2023-07-28T04:28:58;16.30;50.80
80958;DHT22;70419;42.700;23.316;2023-07-28T04:31:24;16.30;50.90
80958;DHT22;70419;42.700;23.316;2023-07-28T04:33:50;16.30;51.30
80958;DHT22;70419;42.700;23.316;2023-07-28T04:36:15;16.30;51.40
80958;DHT22;70419;42.700;23.316;2023-07-28T04:38:41;16.40;51.10
80958;DHT22;70419;42.700;23.316;2023-07-28T04:41:07;16.50;50.80
80958;DHT22;70419;42.700;23.316;2023-07-28T04:43:33;16.60;50.70
80958;DHT22;70419;42.700;23.316;2023-07-28T04:45:58;16.70;50.50
80958;DHT22;70419;42.700;23.316;2023-07-28T04:48:24;16.80;50.20
80958;DHT22;70419;42.700;23.316;2023-07-28T04:50:50;16.90;50.00
80958;DHT22;70419;42.700;23.316;2023-07-28T04:53:15;17.00;49.60
80958;DHT22;70419;42.700;23.316;2023-07-28T04:55:41;17.00;49.30
80958;DHT22;70419;42.700;23.316;2023-07-28T04:58:07;17.10;49.20
80958;DHT22;70419;42.700;23.316;2023-07-28T05:00:33;17.20;49.00
80958;DHT22;70419;42.700;23.316;2023-07-28T05:02:58;17.30;48.50
80958;DHT22;70419;42.700;23.316;2023-07-28T05:05:24;17.30;48.00
80958;DHT22;70419;42.700;23.316;2023-07-28T05:07:50;17.40;47.40
80958;DHT22;70419;42.700;23.316;2023-07-28T05:10:15;17.50;47.20
80958;DHT22;70419;42.700;23.316;2023-07-28T05:12:41;17.60;47.10
80958;DHT22;70419;42.700;23.316;2023-07-28T05:15:07;17.60;46.60
80958;DHT22;70419;42.700;23.316;2023-07-28T05:17:37;17.70;46.70
80958;DHT22;70419;42.700;23.316;2023-07-28T05:20:03;17.80;46.70
80958;DHT22;70419;42.700;23.316;2023-07-28T05:22:29;17.80;46.50
80958;DHT22;70419;42.700;23.316;2023-07-28T05:24:54;17.90;46.00
80958;DHT22;70419;42.700;23.316;2023-07-28T05:27:20;18.00;46.00
80958;DHT22;70419;42.700;23.316;2023-07-28T05:29:46;18.00;45.80
80958;DHT22;70419;42.700;23.316;2023-07-28T05:32:11;18.10;45.40
80958;DHT22;70419;42.700;23.316;2023-07-28T05:34:37;18.10;45.60
80958;DHT22;70419;42.700;23.316;2023-07-28T05:37:05;18.20;45.40
80958;DHT22;70419;42.700;23.316;2023-07-28T05:39:30;18.20;45.50
80958;DHT22;70419;42.700;23.316;2023-07-28T05:41:57;18.30;45.40
80958;DHT22;70419;42.700;23.316;2023-07-28T05:44:26;18.30;45.20
80958;DHT22;70419;42.700;23.316;2023-07-28T05:46:52;18.50;45.00
80958;DHT22;70419;42.700;23.316;2023-07-28T05:49:18;18.60;44.50
80958;DHT22;70419;42.700;23.316;2023-07-28T05:51:43;18.70;44.30
80958;DHT22;70419;42.700;23.316;2023-07-28T05:54:09;18.80;44.40
80958;DHT22;70419;42.700;23.316;2023-07-28T05:56:35;18.80;43.90
80958;DHT22;70419;42.700;23.316;2023-07-28T05:59:01;19.00;44.00
80958;DHT22;70419;42.700;23.316;2023-07-28T06:01:26;19.00;43.80
80958;DHT22;70419;42.700;23.316;2023-07-28T06:03:52;19.10;43.50
80958;DHT22;70419;42.700;23.316;2023-07-28T06:06:21;19.20;43.20
80958;DHT22;70419;42.700;23.316;2023-07-28T06:08:48;19.30;43.20
80958;DHT22;70419;42.700;23.316;2023-07-28T06:11:13;19.40;42.70
80958;DHT22;70419;42.700;23.316;2023-07-28T06:13:39;19.60;42.80
80958;DHT22;70419;42.700;23.316;2023-07-28T06:16:05;19.60;42.50
80958;DHT22;70419;42.700;23.316;2023-07-28T06:18:31;19.80;42.20
80958;DHT22;70419;42.700;23.316;2023-07-28T06:20:56;19.90;42.30
80958;DHT22;70419;42.700;23.316;2023-07-28T06:23:22;20.00;41.90
80958;DHT22;70419;42.700;23.316;2023-07-28T06:25:51;20.10;41.50
80958;DHT22;70419;42.700;23.316;2023-07-28T06:28:16;20.30;41.10
80958;DHT22;70419;42.700;23.316;2023-07-28T06:30:42;20.30;40.60
80958;DHT22;70419;42.700;23.316;2023-07-28T06:33:08;20.50;40.40
80958;DHT22;70419;42.700;23.316;2023-07-28T06:35:34;20.50;40.30
80958;DHT22;70419;42.700;23.316;2023-07-28T06:38:01;20.70;40.20
80958;DHT22;70419;42.700;23.316;2023-07-28T06:40:28;20.70;40.10
80958;DHT22;70419;42.700;23.316;2023-07-28T06:42:54;20.80;40.00
80958;DHT22;70419;42.700;23.316;2023-07-28T06:45:20;20.90;39.90
80958;DHT22;70419;42.700;23.316;2023-07-28T06:47:46;21.00;39.20
80958;DHT22;70419;42.700;23.316;2023-07-28T06:50:13;21.20;38.40
80958;DHT22;70419;42.700;23.316;2023-07-28T06:52:39;21.30;38.40
80958;DHT22;70419;42.700;23.316;2023-07-28T06:55:05;21.40;38.20
80958;DHT22;70419;42.700;23.316;2023-07-28T06:57:32;21.50;37.40
80958;DHT22;70419;42.700;23.316;2023-07-28T07:00:00;21.60;37.40
80958;DHT22;70419;42.700;23.316;2023-07-28T07:02:26;21.60;37.40
80958;DHT22;70419;42.700;23.316;2023-07-28T07:04:52;21.70;37.40
80958;DHT22;70419;42.700;23.316;2023-07-28T07:07:18;21.90;37.20
80958;DHT22;70419;42.700;23.316;2023-07-28T07:09:43;22.00;37.10
80958;DHT22;70419;42.700;23.316;2023-07-28T07:12:10;22.10;36.70
80958;DHT22;70419;42.700;23.316;2023-07-28T07:14:36;22.20;36.60
80958;DHT22;70419;42.700;23.316;2023-07-28T07:17:02;22.30;36.30
80958;DHT22;70419;42.700;23.316;2023-07-28T07:19:28;22.40;35.90
80958;DHT22;70419;42.700;23.316;2023-07-28T07:21:55;22.50;36.00
80958;DHT22;70419;42.700;23.316;2023-07-28T07:24:20;22.70;35.60
80958;DHT22;70419;42.700;23.316;2023-07-28T07:26:46;22.80;34.90
80958;DHT22;70419;42.700;23.316;2023-07-28T07:29:14;22.80;35.10
80958;DHT22;70419;42.700;23.316;2023-07-28T07:31:40;23.00;35.00
80958;DHT22;70419;42.700;23.316;2023-07-28T07:34:06;23.10;35.00
80958;DHT22;70419;42.700;23.316;2023-07-28T07:36:32;23.20;34.60
80958;DHT22;70419;42.700;23.316;2023-07-28T07:38:58;23.40;34.50
80958;DHT22;70419;42.700;23.316;2023-07-28T07:41:24;23.40;34.10
80958;DHT22;70419;42.700;23.316;2023-07-28T07:43:53;23.50;33.80
80958;DHT22;70419;42.700;23.316;2023-07-28T07:46:19;23.50;34.70
80958;DHT22;70419;42.700;23.316;2023-07-28T07:48:47;23.60;33.00
80958;DHT22;70419;42.700;23.316;2023-07-28T07:51:14;23.70;33.40
80958;DHT22;70419;42.700;23.316;2023-07-28T07:53:39;23.80;33.50
80958;DHT22;70419;42.700;23.316;2023-07-28T07:56:06;23.90;33.40
80958;DHT22;70419;42.700;23.316;2023-07-28T07:58:33;24.10;32.70
80958;DHT22;70419;42.700;23.316;2023-07-28T08:00:59;24.30;33.10
80958;DHT22;70419;42.700;23.316;2023-07-28T08:03:25;24.70;32.20
80958;DHT22;70419;42.700;23.316;2023-07-28T08:05:52;25.20;31.70
80958;DHT22;70419;42.700;23.316;2023-07-28T08:08:18;26.20;29.90
80958;DHT22;70419;42.700;23.316;2023-07-28T08:10:45;28.10;28.10
80958;DHT22;70419;42.700;23.316;2023-07-28T08:13:12;30.30;25.50
80958;DHT22;70419;42.700;23.316;2023-07-28T08:15:38;32.40;23.30
80958;DHT22;70419;42.700;23.316;2023-07-28T08:18:04;34.30;21.50
80958;DHT22;70419;42.700;23.316;2023-07-28T08:20:30;36.00;19.80
80958;DHT22;70419;42.700;23.316;2023-07-28T08:22:55;37.50;18.70
80958;DHT22;70419;42.700;23.316;2023-07-28T08:25:21;38.80;17.70
80958;DHT22;70419;42.700;23.316;2023-07-28T08:27:49;40.20;16.60
80958;DHT22;70419;42.700;23.316;2023-07-28T08:30:15;41.50;15.90
80958;DHT22;70419;42.700;23.316;2023-07-28T08:32:44;42.70;14.90
80958;DHT22;70419;42.700;23.316;2023-07-28T08:35:10;43.80;14.20
80958;DHT22;70419;42.700;23.316;2023-07-28T08:37:39;44.40;13.60
80958;DHT22;70419;42.700;23.316;2023-07-28T08:40:07;45.10;13.30
80958;DHT22;70419;42.700;23.316;2023-07-28T08:42:37;45.50;12.60
80958;DHT22;70419;42.700;23.316;2023-07-28T08:45:04;46.00;12.80
80958;DHT22;70419;42.700;23.316;2023-07-28T08:47:33;46.70;12.50
80958;DHT22;70419;42.700;23.316;2023-07-28T08:50:00;47.20;11.80
80958;DHT22;70419;42.700;23.316;2023-07-28T08:52:27;47.80;11.80
80958;DHT22;70419;42.700;23.316;2023-07-28T08:54:54;48.10;11.60
80958;DHT22;70419;42.700;23.316;2023-07-28T08:57:20;48.70;11.40
80958;DHT22;70419;42.700;23.316;2023-07-28T08:59:49;48.70;10.70
80958;DHT22;70419;42.700;23.316;2023-07-28T09:02:16;48.50;10.70
80958;DHT22;70419;42.700;23.316;2023-07-28T09:04:43;47.90;11.10
80958;DHT22;70419;42.700;23.316;2023-07-28T09:07:09;48.20;11.10
80958;DHT22;70419;42.700;23.316;2023-07-28T09:09:36;48.80;11.00
80958;DHT22;70419;42.700;23.316;2023-07-28T09:12:03;49.20;10.50
80958;DHT22;70419;42.700;23.316;2023-07-28T09:14:35;49.90;10.40
80958;DHT22;70419;42.700;23.316;2023-07-28T09:17:09;50.50;10.20
80958;DHT22;70419;42.700;23.316;2023-07-28T09:20:02;51.10;10.00
80958;DHT22;70419;42.700;23.316;2023-07-28T09:22:29;52.00;9.40
80958;DHT22;70419;42.700;23.316;2023-07-28T09:24:55;52.30;9.30
80958;DHT22;70419;42.700;23.316;2023-07-28T09:27:26;52.70;9.00
80958;DHT22;70419;42.700;23.316;2023-07-28T09:29:53;53.20;8.80
80958;DHT22;70419;42.700;23.316;2023-07-28T09:32:31;53.90;8.70
80958;DHT22;70419;42.700;23.316;2023-07-28T09:35:09;54.40;8.60
80958;DHT22;70419;42.700;23.316;2023-07-28T09:37:38;54.80;8.10
80958;DHT22;70419;42.700;23.316;2023-07-28T09:40:10;54.80;7.90
80958;DHT22;70419;42.700;23.316;2023-07-28T09:42:43;55.20;7.90
80958;DHT22;70419;42.700;23.316;2023-07-28T09:45:10;55.70;7.70
80958;DHT22;70419;42.700;23.316;2023-07-28T09:47:36;56.00;7.60
80958;DHT22;70419;42.700;23.316;2023-07-28T09:50:07;56.00;7.40
80958;DHT22;70419;42.700;23.316;2023-07-28T09:52:37;56.10;7.50
80958;DHT22;70419;42.700;23.316;2023-07-28T09:55:08;56.40;7.20
80958;DHT22;70419;42.700;23.316;2023-07-28T09:57:50;56.70;7.10
80958;DHT22;70419;42.700;23.316;2023-07-28T10:00:22;57.20;7.10
80958;DHT22;70419;42.700;23.316;2023-07-28T10:02:48;57.70;6.80
80958;DHT22;70419;42.700;23.316;2023-07-28T10:05:14;58.10;6.50
80958;DHT22;70419;42.700;23.316;2023-07-28T10:07:42;57.80;6.50
80958;DHT22;70419;42.700;23.316;2023-07-28T10:10:10;57.70;6.60
80958;DHT22;70419;42.700;23.316;2023-07-28T10:12:57;57.90;6.50
80958;DHT22;70419;42.700;23.316;2023-07-28T10:15:28;58.10;6.60
80958;DHT22;70419;42.700;23.316;2023-07-28T10:17:56;57.30;6.50
80958;DHT22;70419;42.700;23.316;2023-07-28T10:23:15;56.60;7.10
80958;DHT22;70419;42.700;23.316;2023-07-28T10:25:43;57.10;6.70
80958;DHT22;70419;42.700;23.316;2023-07-28T10:31:05;58.00;6.60
80958;DHT22;70419;42.700;23.316;2023-07-28T10:33:39;58.30;6.40
80958;DHT22;70419;42.700;23.316;2023-07-28T10:36:13;58.60;6.40
80958;DHT22;70419;42.700;23.316;2023-07-28T10:38:41;58.80;6.10
80958;DHT22;70419;42.700;23.316;2023-07-28T10:41:16;58.80;6.00
80958;DHT22;70419;42.700;23.316;2023-07-28T10:43:43;58.10;6.30
80958;DHT22;70419;42.700;23.316;2023-07-28T10:46:10;58.20;6.50
80958;DHT22;70419;42.700;23.316;2023-07-28T10:48:41;56.50;6.90
80958;DHT22;70419;42.700;23.316;2023-07-28T10:51:06;56.40;7.00
80958;DHT22;70419;42.700;23.316;2023-07-28T10:53:32;57.40;6.50
80958;DHT22;70419;42.700;23.316;2023-07-28T10:56:01;57.90;6.40
80958;DHT22;70419;42.700;23.316;2023-07-28T10:58:27;57.80;6.30
80958;DHT22;70419;42.700;23.316;2023-07-28T11:00:53;56.40;6.70
80958;DHT22;70419;42.700;23.316;2023-07-28T11:03:19;56.50;6.80
80958;DHT22;70419;42.700;23.316;2023-07-28T11:05:45;57.10;6.60
80958;DHT22;70419;42.700;23.316;2023-07-28T11:08:13;57.50;6.50
80958;DHT22;70419;42.700;23.316;2023-07-28T11:10:39;58.00;6.40
80958;DHT22;70419;42.700;23.316;2023-07-28T11:13:06;58.50;6.30
80958;DHT22;70419;42.700;23.316;2023-07-28T11:15:32;59.10;6.10
80958;DHT22;70419;42.700;23.316;2023-07-28T11:18:03;59.30;6.00
80958;DHT22;70419;42.700;23.316;2023-07-28T11:20:30;59.70;5.90
80958;DHT22;70419;42.700;23.316;2023-07-28T11:23:00;60.00;5.70
80958;DHT22;70419;42.700;23.316;2023-07-28T11:25:28;60.20;5.20
80958;DHT22;70419;42.700;23.316;2023-07-28T11:27:54;60.60;5.40
80958;DHT22;70419;42.700;23.316;2023-07-28T11:30:23;60.80;5.30
80958;DHT22;70419;42.700;23.316;2023-07-28T11:32:51;60.90;5.20
80958;DHT22;70419;42.700;23.316;2023-07-28T11:35:21;61.20;5.20
80958;DHT22;70419;42.700;23.316;2023-07-28T11:37:52;61.50;5.10
80958;DHT22;70419;42.700;23.316;2023-07-28T11:40:20;61.50;4.90
80958;DHT22;70419;42.700;23.316;2023-07-28T11:42:50;61.80;4.80
80958;DHT22;70419;42.700;23.316;2023-07-28T11:45:18;61.80;4.70
80958;DHT22;70419;42.700;23.316;2023-07-28T11:48:00;60.50;4.70
80958;DHT22;70419;42.700;23.316;2023-07-28T11:50:37;59.40;5.30
80958;DHT22;70419;42.700;23.316;2023-07-28T11:53:04;58.70;5.30
80958;DHT22;70419;42.700;23.316;2023-07-28T11:55:32;59.10;5.50
80958;DHT22;70419;42.700;23.316;2023-07-28T11:57:58;59.60;5.30
80958;DHT22;70419;42.700;23.316;2023-07-28T12:00:35;60.00;5.30
80958;DHT22;70419;42.700;23.316;2023-07-28T12:03:08;60.30;5.10
80958;DHT22;70419;42.700;23.316;2023-07-28T12:05:42;60.40;5.00
80958;DHT22;70419;42.700;23.316;2023-07-28T12:08:38;60.50;5.20
80958;DHT22;70419;42.700;23.316;2023-07-28T12:11:05;59.50;5.30
80958;DHT22;70419;42.700;23.316;2023-07-28T12:13:30;56.70;6.10
80958;DHT22;70419;42.700;23.316;2023-07-28T12:15:56;55.30;6.80
80958;DHT22;70419;42.700;23.316;2023-07-28T12:18:22;54.60;6.70
80958;DHT22;70419;42.700;23.316;2023-07-28T12:20:53;53.00;7.50
80958;DHT22;70419;42.700;23.316;2023-07-28T12:23:21;52.70;7.80
80958;DHT22;70419;42.700;23.316;2023-07-28T12:25:47;54.10;7.50
80958;DHT22;70419;42.700;23.316;2023-07-28T12:28:14;54.80;7.00
80958;DHT22;70419;42.700;23.316;2023-07-28T12:30:40;54.80;6.90
80958;DHT22;70419;42.700;23.316;2023-07-28T12:33:06;55.00;6.70
80958;DHT22;70419;42.700;23.316;2023-07-28T12:35:33;54.70;7.20
80958;DHT22;70419;42.700;23.316;2023-07-28T12:38:04;53.50;7.10
80958;DHT22;70419;42.700;23.316;2023-07-28T12:40:32;53.70;7.40
80958;DHT22;70419;42.700;23.316;2023-07-28T12:42:59;54.60;6.90
80958;DHT22;70419;42.700;23.316;2023-07-28T12:45:25;55.60;6.80
80958;DHT22;70419;42.700;23.316;2023-07-28T12:47:55;56.00;6.70
80958;DHT22;70419;42.700;23.316;2023-07-28T12:50:22;56.70;6.40
80958;DHT22;70419;42.700;23.316;2023-07-28T12:52:49;56.80;6.40
80958;DHT22;70419;42.700;23.316;2023-07-28T12:55:17;57.10;6.30
80958;DHT22;70419;42.700;23.316;2023-07-28T12:57:44;57.50;6.30
80958;DHT22;70419;42.700;23.316;2023-07-28T13:00:10;57.20;6.30
80958;DHT22;70419;42.700;23.316;2023-07-28T13:02:43;56.50;6.50
80958;DHT22;70419;42.700;23.316;2023-07-28T13:05:10;56.50;7.40
80958;DHT22;70419;42.700;23.316;2023-07-28T13:07:39;56.10;6.70
80958;DHT22;70419;42.700;23.316;2023-07-28T13:10:08;55.80;6.60
80958;DHT22;70419;42.700;23.316;2023-07-28T13:12:35;55.60;6.90
80958;DHT22;70419;42.700;23.316;2023-07-28T13:15:02;55.10;7.20
80958;DHT22;70419;42.700;23.316;2023-07-28T13:17:28;54.70;7.20
80958;DHT22;70419;42.700;23.316;2023-07-28T13:19:53;54.30;7.30
80958;DHT22;70419;42.700;23.316;2023-07-28T13:22:19;53.70;7.50
80958;DHT22;70419;42.700;23.316;2023-07-28T13:24:45;52.80;8.00
80958;DHT22;70419;42.700;23.316;2023-07-28T13:27:11;52.20;8.30
80958;DHT22;70419;42.700;23.316;2023-07-28T13:29:36;52.80;8.10
80958;DHT22;70419;42.700;23.316;2023-07-28T13:32:02;53.60;7.80
80958;DHT22;70419;42.700;23.316;2023-07-28T13:34:28;54.10;7.60
80958;DHT22;70419;42.700;23.316;2023-07-28T13:36:55;54.50;7.70
80958;DHT22;70419;42.700;23.316;2023-07-28T13:39:21;54.70;7.40
80958;DHT22;70419;42.700;23.316;2023-07-28T13:41:47;54.80;7.30
80958;DHT22;70419;42.700;23.316;2023-07-28T13:44:13;53.80;7.70
80958;DHT22;70419;42.700;23.316;2023-07-28T13:46:39;53.20;7.60
80958;DHT22;70419;42.700;23.316;2023-07-28T13:49:07;52.10;8.30
80958;DHT22;70419;42.700;23.316;2023-07-28T13:51:33;50.10;9.20
80958;DHT22;70419;42.700;23.316;2023-07-28T13:53:59;48.10;10.00
80958;DHT22;70419;42.700;23.316;2023-07-28T13:56:24;47.30;10.40
80958;DHT22;70419;42.700;23.316;2023-07-28T13:58:51;46.90;10.50
80958;DHT22;70419;42.700;23.316;2023-07-28T14:01:16;47.60;10.30
80958;DHT22;70419;42.700;23.316;2023-07-28T14:03:42;47.70;10.20
80958;DHT22;70419;42.700;23.316;2023-07-28T14:06:11;45.00;11.60
80958;DHT22;70419;42.700;23.316;2023-07-28T14:08:38;44.00;12.40
80958;DHT22;70419;42.700;23.316;2023-07-28T14:11:03;45.30;11.70
80958;DHT22;70419;42.700;23.316;2023-07-28T14:13:29;46.40;10.90
80958;DHT22;70419;42.700;23.316;2023-07-28T14:15:55;47.10;10.60
80958;DHT22;70419;42.700;23.316;2023-07-28T14:18:22;47.50;10.50
80958;DHT22;70419;42.700;23.316;2023-07-28T14:20:48;47.90;10.40
80958;DHT22;70419;42.700;23.316;2023-07-28T14:23:22;47.90;10.10
80958;DHT22;70419;42.700;23.316;2023-07-28T14:25:48;47.20;10.00
80958;DHT22;70419;42.700;23.316;2023-07-28T14:28:14;46.50;10.90
80958;DHT22;70419;42.700;23.316;2023-07-28T14:30:40;46.10;11.10
80958;DHT22;70419;42.700;23.316;2023-07-28T14:33:05;46.70;10.80
80958;DHT22;70419;42.700;23.316;2023-07-28T14:35:31;47.50;10.60
80958;DHT22;70419;42.700;23.316;2023-07-28T14:37:57;48.20;10.00
80958;DHT22;70419;42.700;23.316;2023-07-28T14:40:22;48.80;9.90
80958;DHT22;70419;42.700;23.316;2023-07-28T14:42:48;49.30;9.90
80958;DHT22;70419;42.700;23.316;2023-07-28T14:45:14;49.50;9.70
80958;DHT22;70419;42.700;23.316;2023-07-28T14:47:39;49.40;9.70
80958;DHT22;70419;42.700;23.316;2023-07-28T14:50:05;49.50;9.60
80958;DHT22;70419;42.700;23.316;2023-07-28T14:52:31;49.50;9.70
80958;DHT22;70419;42.700;23.316;2023-07-28T14:54:57;49.40;9.80
80958;DHT22;70419;42.700;23.316;2023-07-28T14:57:23;49.40;9.60
80958;DHT22;70419;42.700;23.316;2023-07-28T14:59:48;49.40;9.60
80958;DHT22;70419;42.700;23.316;2023-07-28T15:02:14;49.30;9.70
80958;DHT22;70419;42.700;23.316;2023-07-28T15:04:40;49.30;9.50
80958;DHT22;70419;42.700;23.316;2023-07-28T15:07:06;49.20;9.70
80958;DHT22;70419;42.700;23.316;2023-07-28T15:09:31;49.20;9.60
80958;DHT22;70419;42.700;23.316;2023-07-28T15:11:58;49.20;9.60
80958;DHT22;70419;42.700;23.316;2023-07-28T15:14:23;49.00;9.60
80958;DHT22;70419;42.700;23.316;2023-07-28T15:16:50;48.70;9.70
80958;DHT22;70419;42.700;23.316;2023-07-28T15:19:16;48.20;9.90
80958;DHT22;70419;42.700;23.316;2023-07-28T15:21:42;47.80;9.90
80958;DHT22;70419;42.700;23.316;2023-07-28T15:24:08;47.60;10.10
80958;DHT22;70419;42.700;23.316;2023-07-28T15:26:34;47.40;10.10
80958;DHT22;70419;42.700;23.316;2023-07-28T15:29:01;47.20;10.10